Time;durP1;ratioP1;P1;durP2;ratioP2;P2;SDS_P1;SDS_P2;PMS_P1;PMS_P2;Temp;Humidity;BMP_temperature;BMP_pressure;BME280_temperature;BME280_humidity;BME280_pressure;Samples;Min_cycle;Max_cycle;Signal;HPM_P1;HPM_P2
2022/04/08 04:14:54;;;;;;;;;;;;;;;9.07;100.00;95976.41;4264474;27;10210;-72
2022/04/08 04:16:56;;;;;;;;;;;;;;;9.15;100.00;95970.09;4263934;27;5597;-72
2022/04/08 04:18:58;;;;;;;;;;;;;;;9.26;100.00;95967.63;4264937;27;6309;-73
2022/04/08 04:20:59;;;;;;;;;;;;;;;9.33;99.41;95957.91;4265381;27;5110;-73
2022/04/08 04:23:02;;;;;;;;;;;;;;;9.30;99.17;95958.31;4264917;27;5624;-73
2022/04/08 04:25:05;;;;;;;;;;;;;;;9.32;99.34;95956.28;4265308;27;5633;-72
2022/04/08 04:27:06;;;;;;;;;;;;;;;9.34;98.91;95959.53;4265403;27;5683;-72
2022/04/08 04:29:08;;;;;;;;;;;;;;;9.40;98.40;95963.19;4265389;27;5827;-72
2022/04/08 04:31:09;;;;;;;;;;;;;;;9.47;98.18;95957.88;4262566;27;5620;-73
2022/04/08 04:33:11;;;;;;;;;;;;;;;9.50;97.97;95962.72;4264169;27;5620;-72
2022/04/08 04:35:13;;;;;;;;;;;;;;;9.47;98.13;95955.25;4264961;27;5620;-73
2022/04/08 04:37:19;;;;;;;;;;;;;;;9.50;98.06;95954.81;4269949;27;5640;-74
2022/04/08 04:39:20;;;;;;;;;;;;;;;9.48;97.76;95949.75;4262177;27;5632;-74
2022/04/08 04:41:22;;;;;;;;;;;;;;;9.48;97.61;95949.75;4263713;27;5645;-74
2022/04/08 04:43:23;;;;;;;;;;;;;;;9.53;97.34;95941.22;4264049;27;5637;-74
2022/04/08 04:45:25;;;;;;;;;;;;;;;9.52;97.01;95945.69;4265126;27;5637;-75
2022/04/08 04:47:26;;;;;;;;;;;;;;;9.52;96.72;95950.16;4264687;27;5350;-74
2022/04/08 04:49:28;;;;;;;;;;;;;;;9.52;96.95;95953.63;4263734;27;7699;-74
2022/04/08 04:51:30;;;;;;;;;;;;;;;9.52;96.83;95963.38;4264378;27;5747;-75
2022/04/08 04:53:32;;;;;;;;;;;;;;;9.57;96.24;95950.34;4261934;27;5633;-74
2022/04/08 04:55:33;;;;;;;;;;;;;;;9.58;96.06;95954.59;4259479;27;5641;-75
2022/04/08 04:57:35;;;;;;;;;;;;;;;9.52;96.76;95950.16;4263828;27;5770;-75
2022/04/08 04:59:37;;;;;;;;;;;;;;;9.48;96.68;95938.38;4264924;27;6340;-75
2022/04/08 05:01:39;;;;;;;;;;;;;;;9.43;96.53;95940.84;4265180;27;5779;-75
2022/04/08 05:03:41;;;;;;;;;;;;;;;9.45;96.75;95941.44;4263958;27;5741;-75
2022/04/08 05:05:42;;;;;;;;;;;;;;;9.41;96.55;95942.88;4264481;27;5660;-75
2022/04/08 05:07:44;;;;;;;;;;;;;;;9.36;97.13;95940.03;4264854;27;5629;-75
2022/04/08 05:09:46;;;;;;;;;;;;;;;9.22;97.70;95945.34;4260675;27;5105;-75
2022/04/08 05:11:48;;;;;;;;;;;;;;;9.01;99.32;95927.09;4261062;27;5744;-75
2022/04/08 05:13:50;;;;;;;;;;;;;;;9.17;98.52;95936.41;4260779;27;5916;-69
2022/04/08 05:15:52;;;;;;;;;;;;;;;9.25;97.40;95929.09;4243281;27;5656;-74
2022/04/08 05:17:55;;;;;;;;;;;;;;;9.22;98.07;95932.16;4249723;27;5717;-72
2022/04/08 05:19:56;;;;;;;;;;;;;;;9.31;97.52;95925.66;4245477;27;5637;-75
2022/04/08 05:21:58;;;;;;;;;;;;;;;9.37;97.01;95931.09;4251010;27;5638;-74
2022/04/08 05:23:59;;;;;;;;;;;;;;;9.46;96.63;95919.31;4252503;27;5680;-74
2022/04/08 05:26:01;;;;;;;;;;;;;;;9.46;96.08;95920.13;4251633;27;5642;-74
2022/04/08 05:28:03;;;;;;;;;;;;;;;9.44;96.03;95910.81;4252858;27;5625;-74
2022/04/08 05:30:12;;;;;;;;;;;;;;;9.46;96.24;95920.13;4247419;27;5602;-73
2022/04/08 05:32:14;;;;;;;;;;;;;;;9.46;96.34;95909.56;4251914;27;5641;-74
2022/04/08 05:34:15;;;;;;;;;;;;;;;9.41;96.36;95906.75;4249704;27;6325;-74
2022/04/08 05:36:17;;;;;;;;;;;;;;;9.40;96.44;95905.16;4252782;27;5808;-74
2022/04/08 05:38:19;;;;;;;;;;;;;;;9.43;96.02;95898.63;4244568;27;5702;-73
2022/04/08 05:40:24;;;;;;;;;;;;;;;9.44;96.07;95902.91;4247832;27;5879;-73
2022/04/08 05:42:25;;;;;;;;;;;;;;;9.46;96.29;95898.22;4250933;27;5581;-74
2022/04/08 05:44:27;;;;;;;;;;;;;;;9.50;96.10;95894.13;4251654;27;5780;-75
2022/04/08 05:46:28;;;;;;;;;;;;;;;9.50;96.02;95888.84;4252902;27;5831;-75
2022/04/08 05:48:30;;;;;;;;;;;;;;;9.47;95.93;95894.56;4252701;27;5696;-74
2022/04/08 05:50:34;;;;;;;;;;;;;;;9.42;96.50;95889.91;4252486;27;5632;-74
2022/04/08 05:52:36;;;;;;;;;;;;;;;9.39;97.07;95897.41;4252976;27;5616;-74
2022/04/08 05:54:38;;;;;;;;;;;;;;;9.48;96.03;95898.81;4251581;27;5697;-75
2022/04/08 05:56:39;;;;;;;;;;;;;;;9.48;95.84;95896.19;4252736;27;6401;-74
2022/04/08 05:58:41;;;;;;;;;;;;;;;9.48;96.09;95896.19;4252705;27;5695;-74
2022/04/08 06:00:43;;;;;;;;;;;;;;;9.46;95.74;95892.94;4252331;27;5736;-74
2022/04/08 06:02:45;;;;;;;;;;;;;;;9.29;96.96;95885.50;4252594;27;5668;-75
2022/04/08 06:04:47;;;;;;;;;;;;;;;9.26;96.95;95891.16;4250866;27;5693;-74
2022/04/08 06:06:50;;;;;;;;;;;;;;;9.28;97.19;95890.94;4251080;27;5602;-74
2022/04/08 06:08:52;;;;;;;;;;;;;;;9.34;96.54;95883.03;4250979;27;5590;-74
2022/04/08 06:10:54;;;;;;;;;;;;;;;9.33;96.73;95881.41;4252605;27;5673;-75
2022/04/08 06:12:56;;;;;;;;;;;;;;;9.26;97.11;95874.53;4252161;27;5628;-73
2022/04/08 06:14:58;;;;;;;;;;;;;;;9.32;96.32;95879.78;4250769;27;6393;-74
2022/04/08 06:16:59;;;;;;;;;;;;;;;9.34;96.07;95869.84;4252434;27;5720;-74
2022/04/08 06:19:01;;;;;;;;;;;;;;;9.37;95.80;95868.59;4251977;27;5639;-73
2022/04/08 06:21:04;;;;;;;;;;;;;;;9.40;96.24;95854.19;4252185;27;5611;-74
2022/04/08 06:23:06;;;;;;;;;;;;;;;9.39;95.64;95871.03;4252431;27;5741;-74
2022/04/08 06:25:14;;;;;;;;;;;;;;;9.34;96.02;95861.94;4252268;27;5715;-74
2022/04/08 06:27:16;;;;;;;;;;;;;;;9.43;95.78;95869.63;4251217;27;5652;-74
2022/04/08 06:29:17;;;;;;;;;;;;;;;9.42;95.57;95868.00;4250971;27;5693;-75
2022/04/08 06:31:19;;;;;;;;;;;;;;;9.41;95.96;95876.94;4252015;27;5641;-74
2022/04/08 06:33:21;;;;;;;;;;;;;;;9.43;95.43;95873.06;4251763;27;5729;-74
2022/04/08 06:35:23;;;;;;;;;;;;;;;9.36;96.04;95866.19;4251627;27;6297;-73
2022/04/08 06:37:29;;;;;;;;;;;;;;;9.24;96.63;95868.66;4251861;27;5620;-74
2022/04/08 06:39:31;;;;;;;;;;;;;;;9.24;96.07;95868.66;4250738;27;5661;-74
2022/04/08 06:41:33;;;;;;;;;;;;;;;9.24;96.20;95864.19;4252018;27;5624;-74
2022/04/08 06:43:34;;;;;;;;;;;;;;;9.20;96.13;95870.91;4251674;27;5884;-74
2022/04/08 06:45:36;;;;;;;;;;;;;;;9.18;96.22;95875.56;4251841;27;5660;-73
2022/04/08 06:47:45;;;;;;;;;;;;;;;9.24;95.86;95874.72;4251665;27;5636;-74
2022/04/08 06:49:47;;;;;;;;;;;;;;;9.25;95.95;95875.53;4251631;27;5712;-74
2022/04/08 06:51:50;;;;;;;;;;;;;;;9.12;96.43;95868.47;4251461;27;5620;-74
2022/04/08 06:53:52;;;;;;;;;;;;;;;9.12;96.58;95870.31;4251248;27;5636;-74
2022/04/08 06:55:53;;;;;;;;;;;;;;;9.13;96.45;95870.09;4250283;27;5587;-74
2022/04/08 06:57:58;;;;;;;;;;;;;;;9.10;97.40;95853.88;4251128;27;5637;-74
2022/04/08 07:00:00;;;;;;;;;;;;;;;9.17;96.78;95873.94;4251236;27;5683;-74
2022/04/08 07:02:03;;;;;;;;;;;;;;;9.23;97.24;95856.50;4251338;27;5621;-74
2022/04/08 07:04:05;;;;;;;;;;;;;;;9.23;96.50;95864.41;4249770;27;5644;-74
2022/04/08 07:06:06;;;;;;;;;;;;;;;9.25;96.81;95854.44;4250511;27;5692;-74
2022/04/08 07:08:08;;;;;;;;;;;;;;;9.11;97.79;95851.03;4247986;27;6397;-74
2022/04/08 07:10:10;;;;;;;;;;;;;;;9.20;96.93;95849.81;4234481;28;5653;-74
2022/04/08 07:12:11;;;;;;;;;;;;;;;9.05;99.05;95859.75;4234538;27;5650;-74
2022/04/08 07:14:14;;;;;;;;;;;;;;;9.02;98.85;95860.19;4245383;27;5628;-74
2022/04/08 07:16:16;;;;;;;;;;;;;;;9.18;97.44;95857.13;4234475;27;5786;-74
2022/04/08 07:18:17;;;;;;;;;;;;;;;9.31;97.09;95843.88;4233368;27;5762;-74
2022/04/08 07:20:19;;;;;;;;;;;;;;;9.31;97.36;95843.88;4248346;27;5656;-74
2022/04/08 07:22:21;;;;;;;;;;;;;;;9.32;96.75;95842.06;4249935;27;5679;-74
2022/04/08 07:24:23;;;;;;;;;;;;;;;9.27;97.09;95847.94;4250947;27;5607;-73
2022/04/08 07:26:25;;;;;;;;;;;;;;;9.13;97.54;95840.28;4246453;27;5642;-74
2022/04/08 07:28:28;;;;;;;;;;;;;;;9.24;97.29;95842.28;4241137;27;5749;-74
2022/04/08 07:30:29;;;;;;;;;;;;;;;9.24;97.65;95837.81;4250003;27;5522;-74
2022/04/08 07:32:32;;;;;;;;;;;;;;;8.99;99.83;95835.03;4251337;27;5667;-74
2022/04/08 07:34:36;;;;;;;;;;;;;;;9.03;99.08;95830.16;4249583;27;5596;-74
2022/04/08 07:36:37;;;;;;;;;;;;;;;9.18;97.91;95825.47;4250378;27;6949;-74
2022/04/08 07:38:39;;;;;;;;;;;;;;;9.29;97.55;95829.28;4232200;28;5514;-74
2022/04/08 07:40:41;;;;;;;;;;;;;;;9.07;99.58;95825.31;4247169;27;6279;-74
2022/04/08 07:42:42;;;;;;;;;;;;;;;9.09;99.15;95823.28;4232590;27;6282;-74
2022/04/08 07:44:44;;;;;;;;;;;;;;;9.29;98.10;95834.56;4250421;27;5834;-74
2022/04/08 07:46:45;;;;;;;;;;;;;;;9.40;97.47;95841.84;4250729;27;5641;-74
2022/04/08 07:48:47;;;;;;;;;;;;;;;9.45;96.73;95838.56;4238818;27;5740;-74
2022/04/08 07:50:49;;;;;;;;;;;;;;;9.50;96.01;95844.00;4239849;27;5591;-74
2022/04/08 07:52:50;;;;;;;;;;;;;;;9.53;95.12;95836.50;4235777;27;5662;-74
2022/04/08 07:54:53;;;;;;;;;;;;;;;9.52;94.07;95834.06;4239987;27;5120;-74
2022/04/08 07:56:55;;;;;;;;;;;;;;;9.58;93.90;95830.59;4233346;27;7692;-74
2022/04/08 07:58:57;;;;;;;;;;;;;;;9.68;94.03;95833.59;4233861;28;5744;-74
2022/04/08 08:00:58;;;;;;;;;;;;;;;9.67;93.23;95831.16;4233791;28;5657;-74
2022/04/08 08:03:00;;;;;;;;;;;;;;;9.73;93.36;95839.03;4235587;27;5891;-74
2022/04/08 08:05:02;;;;;;;;;;;;;;;9.68;94.00;95836.22;4247935;27;5696;-74
2022/04/08 08:07:04;;;;;;;;;;;;;;;9.69;93.00;95840.47;4250392;27;5664;-74
2022/04/08 08:09:06;;;;;;;;;;;;;;;9.79;93.39;95851.41;4247416;27;5620;-74
2022/04/08 08:11:11;;;;;;;;;;;;;;;9.79;94.40;95848.75;4246432;27;5795;-74
2022/04/08 08:13:28;;;;;;;;;;;;;;;9.77;95.05;95836.78;4239646;27;6310;-74
2022/04/08 08:15:33;;;;;;;;;;;;;;;9.75;95.67;95838.84;4256876;27;5910;-74
2022/04/08 08:17:34;;;;;;;;;;;;;;;9.65;96.51;95833.19;4255864;27;7027;-74
2022/04/08 08:19:36;;;;;;;;;;;;;;;9.55;97.48;95831.81;4248569;27;5697;-74
2022/04/08 08:21:38;;;;;;;;;;;;;;;9.63;97.28;95836.06;4250089;27;5763;-74
2022/04/08 08:23:40;;;;;;;;;;;;;;;9.78;96.05;95841.06;4240313;27;5768;-74
2022/04/08 08:25:44;;;;;;;;;;;;;;;9.92;96.19;95848.69;4234443;27;5922;-74
2022/04/08 08:27:57;;;;;;;;;;;;;;;9.97;97.43;95849.91;4249047;27;5617;-74
2022/04/08 08:29:59;;;;;;;;;;;;;;;9.97;96.13;95857.81;4236990;27;5662;-74
2022/04/08 08:32:01;;;;;;;;;;;;;;;9.79;98.12;95854.03;4233490;27;5642;-74
2022/04/08 08:34:03;;;;;;;;;;;;;;;9.82;97.85;95835.13;4241248;27;5816;-73
2022/04/08 08:36:06;;;;;;;;;;;;;;;9.78;97.65;95830.50;4250082;27;5676;-74
2022/04/08 08:38:10;;;;;;;;;;;;;;;9.87;97.07;95843.25;4250558;27;5762;-75
2022/04/08 08:40:13;;;;;;;;;;;;;;;9.88;97.85;95852.78;4250157;27;5633;-74
2022/04/08 08:42:14;;;;;;;;;;;;;;;9.94;95.37;95845.81;4249209;27;5719;-74
2022/04/08 08:44:19;;;;;;;;;;;;;;;10.06;95.83;95835.41;4248993;27;5586;-74
2022/04/08 08:46:21;;;;;;;;;;;;;;;10.04;95.64;95832.97;4250414;27;5629;-75
2022/04/08 08:48:23;;;;;;;;;;;;;;;10.12;95.02;95845.13;4236082;27;5646;-75
2022/04/08 08:50:28;;;;;;;;;;;;;;;10.17;94.72;95832.88;4249652;27;6457;-74
2022/04/08 08:52:31;;;;;;;;;;;;;;;10.09;94.49;95842.91;4253388;27;5595;-74
2022/04/08 08:54:33;;;;;;;;;;;;;;;10.05;93.68;95842.50;4250508;27;5574;-74
2022/04/08 08:56:35;;;;;;;;;;;;;;;10.13;94.13;95830.88;4251141;27;5580;-74
2022/04/08 08:58:37;;;;;;;;;;;;;;;10.30;92.79;95832.00;4251979;27;5502;-74
2022/04/08 09:00:39;;;;;;;;;;;;;;;10.31;93.49;95833.66;4247221;27;5613;-74
2022/04/08 09:02:42;;;;;;;;;;;;;;;10.40;92.24;95824.41;4252608;27;5626;-74
2022/04/08 09:04:45;;;;;;;;;;;;;;;10.38;91.72;95829.09;4251820;27;5628;-75
2022/04/08 09:06:47;;;;;;;;;;;;;;;10.41;91.95;95827.84;4252902;27;5723;-75
2022/04/08 09:08:58;;;;;;;;;;;;;;;10.43;92.52;95833.75;4251824;27;5582;-76
2022/04/08 09:11:00;;;;;;;;;;;;;;;10.41;92.47;95812.00;4253240;27;5648;-75
2022/04/08 09:13:03;;;;;;;;;;;;;;;10.31;93.06;95817.78;4252809;27;5712;-75
2022/04/08 09:15:06;;;;;;;;;;;;;;;10.26;92.09;95819.44;4239518;27;5638;-75
2022/04/08 09:17:07;;;;;;;;;;;;;;;10.27;91.77;95819.22;4250562;27;5733;-76
2022/04/08 09:19:11;;;;;;;;;;;;;;;10.43;92.42;95821.34;4236616;27;7381;-75
2022/04/08 09:21:21;;;;;;;;;;;;;;;10.34;95.13;95827.94;4248945;27;5720;-75
2022/04/08 09:23:23;;;;;;;;;;;;;;;10.47;93.93;95832.28;4243509;27;5661;-75
2022/04/08 09:25:26;;;;;;;;;;;;;;;10.50;93.95;95832.66;4236348;28;5650;-75
2022/04/08 09:27:33;;;;;;;;;;;;;;;10.50;94.07;95842.44;4240988;27;5657;-74
2022/04/08 09:29:34;;;;;;;;;;;;;;;10.38;94.19;95842.31;4236650;27;5661;-74
2022/04/08 09:31:59;;;;;;;;;;;;;;;10.41;94.16;95835.78;4252302;27;5071;-74
2022/04/08 09:34:01;;;;;;;;;;;;;;;10.34;95.02;95838.50;4252600;27;5657;-73
2022/04/08 09:36:03;;;;;;;;;;;;;;;10.23;94.91;95839.19;4252669;27;5630;-74
2022/04/08 09:38:04;;;;;;;;;;;;;;;10.15;96.75;95844.69;4251507;27;5650;-74
2022/04/08 09:40:08;;;;;;;;;;;;;;;10.08;96.78;95844.75;4251384;27;5639;-75
2022/04/08 09:42:10;;;;;;;;;;;;;;;10.01;97.57;95848.44;4252365;27;6269;-74
2022/04/08 09:44:14;;;;;;;;;;;;;;;9.98;98.28;95870.00;4251712;27;5821;-74
2022/04/08 09:46:20;;;;;;;;;;;;;;;9.90;99.17;95850.72;4250188;27;5688;-74
2022/04/08 09:48:21;;;;;;;;;;;;;;;9.88;99.69;95850.13;4237904;27;5721;-73
2022/04/08 09:50:24;;;;;;;;;;;;;;;9.85;100.00;95853.19;4248488;27;6275;-73
2022/04/08 09:52:26;;;;;;;;;;;;;;;9.85;100.00;95847.09;4250862;27;5606;-75
2022/04/08 09:54:30;;;;;;;;;;;;;;;9.95;100.00;95854.56;4251822;27;5723;-73
2022/04/08 09:56:34;;;;;;;;;;;;;;;9.99;99.86;95863.69;4250129;27;5644;-74
2022/04/08 09:58:37;;;;;;;;;;;;;;;10.02;99.83;95874.63;4252106;27;5640;-74
2022/04/08 10:00:43;;;;;;;;;;;;;;;10.02;100.00;95871.19;4252189;27;5633;-74
2022/04/08 10:02:46;;;;;;;;;;;;;;;9.97;100.00;95863.09;4251882;27;5632;-73
2022/04/08 10:04:48;;;;;;;;;;;;;;;10.09;100.00;95869.31;4251735;27;5727;-73
2022/04/08 10:06:50;;;;;;;;;;;;;;;10.15;99.92;95863.97;4247683;27;5961;-74
2022/04/08 10:08:53;;;;;;;;;;;;;;;10.21;99.80;95862.34;4246643;27;5812;-74
2022/04/08 10:11:07;;;;;;;;;;;;;;;10.25;99.45;95842.41;4247768;27;5661;-74
2022/04/08 10:13:26;;;;;;;;;;;;;;;10.32;98.70;95845.03;4250660;27;5583;-75
2022/04/08 10:15:40;;;;;;;;;;;;;;;10.34;98.71;95835.03;4250601;27;5628;-75
2022/04/08 10:17:42;;;;;;;;;;;;;;;10.38;98.42;95833.59;4244973;27;5648;-75
2022/04/08 10:19:43;;;;;;;;;;;;;;;10.40;97.90;95821.78;4245121;27;5812;-75
2022/04/08 10:21:53;;;;;;;;;;;;;;;10.40;97.25;95827.06;4245385;27;5627;-75
2022/04/08 10:23:55;;;;;;;;;;;;;;;10.40;96.85;95832.34;4246382;27;5800;-75
2022/04/08 10:25:58;;;;;;;;;;;;;;;10.42;96.14;95851.44;4251550;27;5716;-75
2022/04/08 10:28:00;;;;;;;;;;;;;;;10.40;95.86;95850.84;4250289;27;6497;-75
2022/04/08 10:30:12;;;;;;;;;;;;;;;10.34;96.61;95846.41;4233495;27;5695;-75
2022/04/08 10:32:15;;;;;;;;;;;;;;;10.24;96.53;95832.88;4251698;27;5782;-75
2022/04/08 10:34:22;;;;;;;;;;;;;;;10.32;95.85;95824.69;4251235;27;5624;-75
2022/04/08 10:36:34;;;;;;;;;;;;;;;10.39;94.98;95827.28;4251505;27;5953;-75
2022/04/08 10:38:37;;;;;;;;;;;;;;;10.47;94.65;95811.16;4251553;27;6261;-75
2022/04/08 10:40:46;;;;;;;;;;;;;;;10.51;94.39;95809.69;4251437;27;5649;-75
2022/04/08 10:43:03;;;;;;;;;;;;;;;10.64;94.26;95806.13;4251457;27;5715;-75
2022/04/08 10:45:13;;;;;;;;;;;;;;;10.69;93.04;95814.22;4276338;27;5859;-75
2022/04/08 10:47:19;;;;;;;;;;;;;;;10.74;92.15;95806.44;4245960;27;5712;-75
2022/04/08 10:49:21;;;;;;;;;;;;;;;10.60;92.58;95797.03;4250938;27;5695;-75
2022/04/08 10:51:22;;;;;;;;;;;;;;;10.71;92.57;95801.59;4246356;27;5646;-75
2022/04/08 10:53:32;;;;;;;;;;;;;;;10.68;92.02;95791.47;4248928;27;5582;-75
2022/04/08 10:55:50;;;;;;;;;;;;;;;10.72;88.93;95774.13;4248492;27;5633;-75
2022/04/08 10:57:56;;;;;;;;;;;;;;;10.79;88.79;95772.25;4248891;27;5111;-75
2022/04/08 10:59:58;;;;;;;;;;;;;;;10.78;87.16;95773.28;4246835;27;7676;-76
2022/04/08 11:02:05;;;;;;;;;;;;;;;10.83;87.89;95767.31;4223625;27;5608;-76
2022/04/08 11:04:08;;;;;;;;;;;;;;;10.82;86.92;95758.56;4250412;27;6223;-74
2022/04/08 11:06:10;;;;;;;;;;;;;;;10.87;86.48;95750.78;4250759;27;5632;-75
2022/04/08 11:08:14;;;;;;;;;;;;;;;10.86;86.39;95758.94;4249516;27;5606;-76
2022/04/08 11:10:20;;;;;;;;;;;;;;;10.95;86.71;95762.91;4244113;27;5625;-75
2022/04/08 11:12:22;;;;;;;;;;;;;;;10.90;86.87;95762.78;4250300;27;6313;-75
2022/04/08 11:14:26;;;;;;;;;;;;;;;10.79;87.12;95754.53;4248966;27;5602;-74
2022/04/08 11:16:39;;;;;;;;;;;;;;;10.89;87.68;95746.09;4249015;27;6523;-75
2022/04/08 11:18:46;;;;;;;;;;;;;;;10.93;87.02;95747.25;4250615;27;5715;-76
2022/04/08 11:20:49;;;;;;;;;;;;;;;10.84;87.34;95748.59;4250433;27;5745;-75
2022/04/08 11:22:52;;;;;;;;;;;;;;;10.93;87.62;95755.19;4250851;27;5633;-75
2022/04/08 11:24:59;;;;;;;;;;;;;;;11.02;86.92;95755.72;4250885;27;5648;-75
2022/04/08 11:27:01;;;;;;;;;;;;;;;11.09;84.79;95749.31;4249427;27;5740;-70
2022/04/08 11:29:10;;;;;;;;;;;;;;;11.59;82.79;95738.50;4245473;27;5732;-61
2022/04/08 11:31:12;;;;;;;;;;;;;;;12.72;78.29;95744.69;4248505;27;5644;-59
2022/04/08 11:33:15;;;;;;;;;;;;;;;12.50;78.72;95737.31;4248535;27;5676;-59
2022/04/08 11:35:16;;;;;;;;;;;;;;;12.21;79.38;95727.63;4249705;27;5684;-59
2022/04/08 11:37:26;;;;;;;;;;;;;;;12.17;79.10;95723.81;4250224;27;5636;-59
2022/04/08 11:39:30;;;;;;;;;;;;;;;12.48;77.78;95712.09;4241265;27;5708;-59
2022/04/08 11:41:37;;;;;;;;;;;;;;;12.48;77.91;95701.50;4240902;27;5650;-59
2022/04/08 11:43:39;;;;;;;;;;;;;;;12.68;77.13;95701.09;4241433;27;5625;-61
2022/04/08 11:45:42;;;;;;;;;;;;;;;12.34;76.98;95694.78;4228130;27;5754;-74
2022/04/08 11:47:48;;;;;;;;;;;;;;;12.00;78.46;95688.44;4246710;27;5636;-74
2022/04/08 11:50:04;;;;;;;;;;;;;;;11.90;79.47;95695.13;4236861;27;5665;-69
2022/04/08 11:52:07;;;;;;;;;;;;;;;11.87;79.98;95689.44;4240104;27;5747;-72
2022/04/08 11:54:09;;;;;;;;;;;;;;;11.64;79.96;95690.97;4245915;27;5816;-73
2022/04/08 11:56:11;;;;;;;;;;;;;;;11.54;80.20;95696.00;4250420;27;5637;-72
2022/04/08 11:58:19;;;;;;;;;;;;;;;11.63;80.65;95689.38;4250165;27;5676;-72
2022/04/08 12:00:30;;;;;;;;;;;;;;;11.74;79.55;95690.44;4248378;27;5744;-73
2022/04/08 12:02:32;;;;;;;;;;;;;;;11.69;80.13;95690.31;4248268;27;5783;-74
2022/04/08 12:04:41;;;;;;;;;;;;;;;11.64;80.38;95690.97;4247613;27;5628;-72
2022/04/08 12:06:47;;;;;;;;;;;;;;;11.68;80.45;95686.06;4246876;27;5632;-76
2022/04/08 12:08:49;;;;;;;;;;;;;;;11.73;77.92;95688.00;4244379;27;5605;-73
2022/04/08 12:10:53;;;;;;;;;;;;;;;11.71;77.45;95687.44;4249884;27;7709;-72
2022/04/08 12:12:55;;;;;;;;;;;;;;;11.69;75.86;95692.16;4242163;27;5617;-77
2022/04/08 12:15:09;;;;;;;;;;;;;;;11.71;76.78;95700.69;4248612;27;5649;-74
2022/04/08 12:17:15;;;;;;;;;;;;;;;11.72;74.97;95697.00;4249479;27;5648;-75
2022/04/08 12:19:18;;;;;;;;;;;;;;;11.68;75.83;95706.44;4248975;27;5875;-75
2022/04/08 12:21:39;;;;;;;;;;;;;;;11.64;76.38;95706.06;4244396;27;5835;-74
2022/04/08 12:23:41;;;;;;;;;;;;;;;11.61;76.27;95711.81;4250007;27;5727;-72
2022/04/08 12:25:42;;;;;;;;;;;;;;;11.49;77.70;95698.53;4245049;27;5606;-75
2022/04/08 12:27:53;;;;;;;;;;;;;;;11.45;78.92;95715.09;4252301;27;5823;-74
2022/04/08 12:30:11;;;;;;;;;;;;;;;11.33;80.36;95694.69;4247057;27;5640;-73
2022/04/08 12:32:14;;;;;;;;;;;;;;;11.25;79.38;95707.41;4247704;27;5658;-73
2022/04/08 12:34:17;;;;;;;;;;;;;;;11.35;79.17;95703.22;4251874;27;6294;-74
2022/04/08 12:36:21;;;;;;;;;;;;;;;11.25;81.19;95684.41;4250342;27;5735;-75
2022/04/08 12:38:22;;;;;;;;;;;;;;;11.22;82.30;95695.47;4245971;27;5733;-73
2022/04/08 12:40:24;;;;;;;;;;;;;;;11.22;83.12;95689.34;4248154;27;5897;-74
2022/04/08 12:42:26;;;;;;;;;;;;;;;11.25;83.49;95675.69;4250111;27;5644;-74
2022/04/08 12:44:27;;;;;;;;;;;;;;;11.21;83.75;95674.50;4252897;27;5727;-73
2022/04/08 12:46:29;;;;;;;;;;;;;;;10.97;84.35;95673.59;4244252;27;5682;-73
2022/04/08 12:48:32;;;;;;;;;;;;;;;10.99;85.18;95676.84;4247984;27;5762;-73
2022/04/08 12:50:35;;;;;;;;;;;;;;;10.98;84.93;95670.72;4236265;27;5830;-73
2022/04/08 12:52:37;;;;;;;;;;;;;;;10.98;84.99;95664.63;4235647;28;5747;-73
2022/04/08 12:54:39;;;;;;;;;;;;;;;10.98;85.14;95668.06;4250181;27;5713;-73
2022/04/08 12:56:41;;;;;;;;;;;;;;;11.01;84.33;95666.84;4247351;27;5623;-73
2022/04/08 12:58:42;;;;;;;;;;;;;;;11.03;84.21;95667.41;4246193;27;5629;-74
2022/04/08 13:00:45;;;;;;;;;;;;;;;10.82;85.20;95666.03;4243398;27;5688;-72
2022/04/08 13:02:48;;;;;;;;;;;;;;;10.81;86.09;95660.97;4243129;27;5821;-75
2022/04/08 13:04:50;;;;;;;;;;;;;;;10.89;85.61;95656.19;4238944;27;5609;-73
2022/04/08 13:06:57;;;;;;;;;;;;;;;10.90;86.18;95649.06;4236510;27;5786;-74
2022/04/08 13:08:58;;;;;;;;;;;;;;;11.00;84.72;95646.72;4236335;28;5680;-74
2022/04/08 13:11:01;;;;;;;;;;;;;;;10.96;84.13;95635.75;4234923;28;5605;-74
2022/04/08 13:13:03;;;;;;;;;;;;;;;10.95;83.50;95634.16;4235885;27;5745;-73
2022/04/08 13:15:07;;;;;;;;;;;;;;;11.05;82.39;95639.72;4238064;27;6907;-73
2022/04/08 13:17:10;;;;;;;;;;;;;;;11.00;82.27;95634.28;4253454;27;5656;-74
2022/04/08 13:19:12;;;;;;;;;;;;;;;11.04;82.04;95630.16;4252947;27;5640;-74
2022/04/08 13:21:15;;;;;;;;;;;;;;;10.98;81.88;95628.41;4234550;27;5676;-73
2022/04/08 13:23:17;;;;;;;;;;;;;;;11.06;81.80;95619.34;4253226;27;6403;-74
2022/04/08 13:25:20;;;;;;;;;;;;;;;11.08;80.81;95609.34;4252629;27;5671;-74
2022/04/08 13:27:23;;;;;;;;;;;;;;;11.05;81.60;95613.25;4251759;27;5612;-74
2022/04/08 13:29:24;;;;;;;;;;;;;;;11.19;81.90;95613.88;4248670;27;5756;-74
2022/04/08 13:31:26;;;;;;;;;;;;;;;11.18;82.10;95614.09;4236049;28;5662;-73
2022/04/08 13:33:28;;;;;;;;;;;;;;;11.14;82.30;95616.41;4235909;28;5793;-73
2022/04/08 13:35:29;;;;;;;;;;;;;;;11.01;83.30;95612.09;4246450;27;5582;-74
2022/04/08 13:37:31;;;;;;;;;;;;;;;11.05;83.84;95602.69;4251066;27;5621;-73
2022/04/08 13:39:33;;;;;;;;;;;;;;;11.10;84.06;95604.66;4260820;27;5111;-74
2022/04/08 13:41:35;;;;;;;;;;;;;;;11.20;83.76;95596.97;4250841;27;5602;-74
2022/04/08 13:43:37;;;;;;;;;;;;;;;11.23;83.59;95601.03;4252761;27;5757;-74
2022/04/08 13:45:38;;;;;;;;;;;;;;;11.17;83.51;95588.69;4251530;27;5594;-74
2022/04/08 13:47:40;;;;;;;;;;;;;;;11.09;84.65;95582.69;4251384;27;5602;-73
2022/04/08 13:49:42;;;;;;;;;;;;;;;11.11;84.89;95584.31;4251712;27;5689;-73
2022/04/08 13:51:44;;;;;;;;;;;;;;;11.07;85.97;95599.81;4251318;27;5649;-74
2022/04/08 13:53:45;;;;;;;;;;;;;;;10.89;86.44;95592.75;4252738;27;5633;-74
2022/04/08 13:55:47;;;;;;;;;;;;;;;10.90;86.43;95575.03;4247408;27;5731;-74
2022/04/08 13:57:48;;;;;;;;;;;;;;;10.95;85.57;95573.31;4246495;27;5729;-74
2022/04/08 13:59:56;;;;;;;;;;;;;;;11.00;85.56;95573.47;4248122;27;5667;-74
2022/04/08 14:01:58;;;;;;;;;;;;;;;11.05;85.76;95581.53;4238258;27;5715;-73
2022/04/08 14:04:00;;;;;;;;;;;;;;;10.92;86.51;95571.13;4247006;27;5839;-74
2022/04/08 14:06:02;;;;;;;;;;;;;;;11.01;86.29;95571.63;4249097;27;5719;-74
2022/04/08 14:08:04;;;;;;;;;;;;;;;10.98;86.12;95566.78;4249412;27;5849;-74
2022/04/08 14:10:06;;;;;;;;;;;;;;;10.97;86.28;95573.91;4240407;27;5769;-74
2022/04/08 14:12:08;;;;;;;;;;;;;;;10.88;86.99;95563.88;4238560;27;5751;-74
2022/04/08 14:14:10;;;;;;;;;;;;;;;10.89;86.58;95587.47;4249445;27;5740;-74
2022/04/08 14:16:12;;;;;;;;;;;;;;;10.89;86.76;95582.16;4249077;27;5640;-74
2022/04/08 14:18:14;;;;;;;;;;;;;;;10.86;87.03;95579.94;4249535;27;5890;-73
2022/04/08 14:20:16;;;;;;;;;;;;;;;10.92;86.83;95589.66;4249108;27;5732;-74
2022/04/08 14:22:18;;;;;;;;;;;;;;;10.83;87.69;95579.59;4249329;27;5727;-73
2022/04/08 14:24:20;;;;;;;;;;;;;;;10.90;87.89;95581.13;4249475;27;5732;-73
2022/04/08 14:26:22;;;;;;;;;;;;;;;11.01;87.35;95572.44;4249489;27;5760;-74
2022/04/08 14:28:24;;;;;;;;;;;;;;;10.97;87.24;95568.63;4249080;27;5739;-73
2022/04/08 14:30:26;;;;;;;;;;;;;;;10.93;88.12;95580.69;4247671;27;5803;-73
2022/04/08 14:32:29;;;;;;;;;;;;;;;11.02;86.83;95566.13;4249189;27;5735;-73
2022/04/08 14:34:30;;;;;;;;;;;;;;;11.01;86.65;95564.50;4249023;27;5723;-74
2022/04/08 14:36:32;;;;;;;;;;;;;;;11.02;86.78;95567.94;4249229;27;5640;-73
2022/04/08 14:38:35;;;;;;;;;;;;;;;10.99;86.81;95548.06;4247824;27;5863;-73
2022/04/08 14:40:37;;;;;;;;;;;;;;;11.02;86.29;95558.19;4249027;27;6040;-73
2022/04/08 14:42:38;;;;;;;;;;;;;;;10.96;86.44;95548.50;4249109;27;5719;-73
2022/04/08 14:44:40;;;;;;;;;;;;;;;10.96;86.46;95545.84;4246294;27;5718;-73
2022/04/08 14:46:42;;;;;;;;;;;;;;;11.00;86.46;95538.28;4246523;27;5735;-73
2022/04/08 14:48:44;;;;;;;;;;;;;;;11.07;85.60;95537.13;4233791;27;5994;-73
2022/04/08 14:50:46;;;;;;;;;;;;;;;11.04;86.16;95534.16;4239212;27;6804;-72
2022/04/08 14:52:47;;;;;;;;;;;;;;;11.13;85.38;95539.94;4234820;27;5737;-73
2022/04/08 14:54:51;;;;;;;;;;;;;;;11.26;84.68;95542.38;4233584;27;6620;-72
2022/04/08 14:56:52;;;;;;;;;;;;;;;11.29;85.52;95534.78;4278258;27;5572;-73
2022/04/08 14:58:54;;;;;;;;;;;;;;;11.35;85.89;95538.34;4248699;27;5745;-73
2022/04/08 15:00:56;;;;;;;;;;;;;;;11.23;87.32;95524.31;4240983;27;6419;-72
2022/04/08 15:02:58;;;;;;;;;;;;;;;11.24;87.02;95505.56;4231406;27;5737;-72
2022/04/08 15:05:02;;;;;;;;;;;;;;;11.24;87.14;95499.47;4242475;27;5828;-73
2022/04/08 15:07:04;;;;;;;;;;;;;;;11.26;87.12;95482.31;4246955;27;5703;-74